首页
METAR-TAF:

METAR-TAF

机场 :

杜拜, 阿拉伯联合酋长国

迪拜国际机场

纬度: 25-15-10N, 经度: 055-21-52E, 海拔: 8米

当前天气观测

该预报发布于29分钟前的14:00 UTC
风速10节,风向西北,在西转西北之间变化
温度 22°C
湿度 33%
气压 1016 hPa
能见度10公里或以上
1500米以下无云,无积雨云

METAR: OMDB 221400Z 32010KT 300V010 CAVOK 22/05 Q1016 NOSIG

时间: 18:29 (14:29 UTC)

预报

该预报发布于3小时和37分钟前的10:52 UTC
预报有效从22日的 12点(UTC)到 23日的 18点(UTC)
风速10节,风向北转西北
能見度: 7000
几率 30%
从 22日的 12点(UTC)到 22日的 15点(UTC)
能見度: 4000
浮尘
成为
从 22日的 15点(UTC)到 22日的 17点(UTC)
风速5节,风向东转东北
几率 30%
从 23日的 02点(UTC)到 23日的 05点(UTC)
能見度: 4000
成为
从 23日的 08点(UTC)到 23日的 10点(UTC)
风速10节,风向北转西北
成为
从 23日的 15点(UTC)到 23日的 17点(UTC)
风速5节,风向

TAF: OMDB 221052Z 2212/2318 33010KT 7000 NSC PROB30 2212/2215 4000 DU BECMG 2215/2217 07005KT PROB30 2302/2305 4000 HZ BECMG 2308/2310 33010KT BECMG 2315/2317 09005KT

超过4000个机场的气象观测和天气预报(METAR&TAF报告)。

可查询的气象台以黄色和红色小点在地图上表示。

将鼠标移到小点上方,可查看气象台名称。

然后点击查看天气观测和预报。

如需切换地图:点击带黑十字的绿色按钮放大地图;点击带横线的绿色按钮缩小地图;或者点击绿色箭头查看邻近地区的地图。


METAR-TAF: